Time;durP1;ratioP1;P1;durP2;ratioP2;P2;SDS_P1;SDS_P2;PMS_P1;PMS_P2;Temp;Humidity;BMP_temperature;BMP_pressure;BME280_temperature;BME280_humidity;BME280_pressure;Samples;Min_cycle;Max_cycle;Signal;HPM_P1;HPM_P2
2021/05/21 00:00:38;;;;;;;2.37;2.17;;;14.60;65.30;;;;;;5024319;28;20217;-89
2021/05/21 00:03:05;;;;;;;2.10;1.90;;;14.70;64.00;;;;;;5006697;28;20242;-89
2021/05/21 00:05:31;;;;;;;1.93;1.83;;;14.60;64.00;;;;;;5006906;28;20190;-90
2021/05/21 00:07:56;;;;;;;1.93;1.80;;;14.50;65.00;;;;;;4990456;28;20186;-89
2021/05/21 00:10:22;;;;;;;2.10;2.00;;;14.50;64.30;;;;;;5006741;28;20208;-89
2021/05/21 00:12:48;;;;;;;2.80;1.87;;;14.50;62.70;;;;;;5024801;28;20605;-89
2021/05/21 00:15:15;;;;;;;2.00;1.80;;;14.50;62.60;;;;;;5041468;28;20188;-90
2021/05/21 00:17:41;;;;;;;3.00;2.20;;;14.40;64.20;;;;;;5044370;28;20546;-89
2021/05/21 00:20:07;;;;;;;2.03;1.90;;;14.40;65.70;;;;;;5026747;28;20197;-90
2021/05/21 00:22:33;;;;;;;1.90;1.80;;;14.50;65.20;;;;;;5043910;28;20236;-89
2021/05/21 00:24:59;;;;;;;1.90;1.80;;;14.50;65.40;;;;;;5044215;28;20173;-89
2021/05/21 00:27:24;;;;;;;2.37;2.17;;;14.50;66.20;;;;;;5044837;28;20181;-90
2021/05/21 00:29:50;;;;;;;3.17;2.13;;;14.40;67.50;;;;;;5042508;28;20195;-90
2021/05/21 00:32:16;;;;;;;2.10;1.90;;;14.30;68.30;;;;;;5025857;28;20184;-90
2021/05/21 00:34:42;;;;;;;2.33;2.13;;;14.20;68.70;;;;;;5030484;28;20231;-91
2021/05/21 00:37:08;;;;;;;2.07;1.97;;;14.20;68.70;;;;;;5006097;28;20215;-90
2021/05/21 00:39:33;;;;;;;2.07;1.90;;;14.30;68.00;;;;;;5024375;28;20472;-90
2021/05/21 00:41:59;;;;;;;2.03;1.93;;;14.40;68.40;;;;;;5005820;28;20177;-90
2021/05/21 00:44:24;;;;;;;2.90;2.00;;;14.40;68.40;;;;;;5023634;28;20185;-90
2021/05/21 00:46:50;;;;;;;2.00;1.90;;;14.30;68.70;;;;;;5023283;28;20182;-89
2021/05/21 00:49:19;;;;;;;1.80;1.70;;;14.40;68.60;;;;;;5024637;28;20186;-90
2021/05/21 00:51:48;;;;;;;1.93;1.83;;;14.40;68.30;;;;;;5006207;28;20205;-90
2021/05/21 00:54:18;;;;;;;1.90;1.80;;;14.40;68.40;;;;;;5027697;28;20213;-90
2021/05/21 00:56:44;;;;;;;2.50;2.00;;;14.40;68.50;;;;;;5002678;28;20202;-89
2021/05/21 00:59:10;;;;;;;2.23;2.07;;;14.30;68.50;;;;;;4990115;28;20698;-90
2021/05/21 01:01:36;;;;;;;2.20;1.97;;;14.30;68.40;;;;;;5009831;28;20218;-90
2021/05/21 01:04:03;;;;;;;1.83;1.73;;;14.20;69.40;;;;;;5024735;28;20805;-90
2021/05/21 01:06:29;;;;;;;2.23;1.83;;;14.10;69.50;;;;;;5023841;28;20265;-90
2021/05/21 01:08:55;;;;;;;1.80;1.70;;;14.10;69.60;;;;;;5024258;28;20186;-90
2021/05/21 01:11:21;;;;;;;2.10;2.00;;;14.20;69.50;;;;;;5023966;28;20228;-90
2021/05/21 01:13:47;;;;;;;2.67;2.13;;;14.20;68.70;;;;;;5006875;28;20839;-90
2021/05/21 01:16:13;;;;;;;2.67;1.87;;;14.10;69.60;;;;;;5023595;28;20184;-90
2021/05/21 01:18:39;;;;;;;2.73;2.20;;;14.00;69.80;;;;;;5006810;28;20255;-90
2021/05/21 01:21:05;;;;;;;2.10;1.80;;;14.00;70.20;;;;;;5024077;28;20205;-90
2021/05/21 01:23:31;;;;;;;2.73;2.00;;;14.00;70.00;;;;;;5036360;28;20193;-90
2021/05/21 01:25:57;;;;;;;2.67;2.40;;;14.10;69.90;;;;;;5038909;28;20224;-90
2021/05/21 01:28:23;;;;;;;2.23;2.03;;;14.10;69.80;;;;;;5037561;28;20190;-90
2021/05/21 01:30:50;;;;;;;2.57;1.97;;;14.10;69.90;;;;;;5030044;28;20192;-90
2021/05/21 01:33:16;;;;;;;2.10;2.00;;;14.00;70.00;;;;;;5042342;28;20279;-90
2021/05/21 01:36:00;;;;;;;1.90;1.80;;;14.00;70.00;;;;;;5058381;28;20177;-88
2021/05/21 01:38:26;;;;;;;2.33;2.13;;;14.10;70.00;;;;;;5039271;28;20165;-90
2021/05/21 01:40:53;;;;;;;1.83;1.73;;;14.10;69.20;;;;;;5050393;28;20848;-90
2021/05/21 01:43:19;;;;;;;2.00;1.90;;;14.10;69.60;;;;;;5059580;28;20168;-90
2021/05/21 01:45:45;;;;;;;2.00;1.90;;;14.10;69.20;;;;;;5049153;28;20271;-90
2021/05/21 01:48:12;;;;;;;2.97;2.40;;;14.10;69.20;;;;;;5041931;28;20211;-90
2021/05/21 01:50:43;;;;;;;1.90;1.80;;;14.00;69.70;;;;;;5042160;28;20699;-91
2021/05/21 01:53:09;;;;;;;2.00;1.90;;;13.90;69.90;;;;;;5040595;28;20212;-91
2021/05/21 01:55:35;;;;;;;2.03;1.90;;;13.90;70.10;;;;;;5029040;28;20192;-90
2021/05/21 01:58:01;;;;;;;2.80;2.00;;;13.90;70.20;;;;;;5022493;28;20211;-90
2021/05/21 02:00:27;;;;;;;2.00;1.90;;;13.90;70.30;;;;;;5014946;28;20242;-91
2021/05/21 02:03:48;;;;;;;2.13;2.00;;;13.90;70.20;;;;;;5041900;28;20188;-91
2021/05/21 02:06:14;;;;;;;2.67;1.87;;;13.70;70.50;;;;;;5040148;28;20181;-90
2021/05/21 02:08:39;;;;;;;2.33;2.13;;;13.60;71.50;;;;;;5041704;28;20187;-90
2021/05/21 02:11:05;;;;;;;2.27;2.10;;;13.50;71.50;;;;;;5040143;28;20203;-90
2021/05/21 02:13:30;;;;;;;2.40;1.83;;;13.60;71.50;;;;;;5041560;28;20293;-91
2021/05/21 02:15:56;;;;;;;1.90;1.80;;;13.60;71.30;;;;;;5040924;28;20185;-89
2021/05/21 02:18:22;;;;;;;1.90;1.80;;;13.60;71.20;;;;;;5041292;28;20279;-91
2021/05/21 02:20:47;;;;;;;2.70;1.90;;;13.60;71.10;;;;;;5040482;28;20223;-90
2021/05/21 02:23:13;;;;;;;2.40;1.93;;;13.70;70.40;;;;;;5041579;28;20191;-90
2021/05/21 02:25:39;;;;;;;2.90;2.37;;;13.50;71.30;;;;;;5040729;28;20191;-92
2021/05/21 02:28:05;;;;;;;2.73;2.17;;;13.40;72.20;;;;;;5041218;28;20193;-90
2021/05/21 02:30:30;;;;;;;4.43;2.50;;;13.10;73.30;;;;;;5041069;28;20201;-90
2021/05/21 02:32:57;;;;;;;2.30;2.10;;;12.80;74.40;;;;;;5023037;28;20212;-90
2021/05/21 02:35:22;;;;;;;2.10;2.00;;;12.90;74.90;;;;;;5041429;28;20182;-90
2021/05/21 02:37:48;;;;;;;2.03;1.93;;;13.00;74.00;;;;;;5041035;28;20193;-90
2021/05/21 02:40:14;;;;;;;3.63;2.10;;;12.90;74.20;;;;;;5041096;28;20627;-90
2021/05/21 02:42:40;;;;;;;3.00;2.00;;;13.00;74.10;;;;;;5041032;28;20236;-91
2021/05/21 02:45:07;;;;;;;2.40;1.83;;;13.00;74.00;;;;;;5040864;28;20224;-91
2021/05/21 02:47:33;;;;;;;1.97;1.87;;;13.00;73.90;;;;;;5040666;28;20187;-89
2021/05/21 02:49:59;;;;;;;2.10;1.90;;;13.10;73.30;;;;;;5040842;28;20232;-88
2021/05/21 02:52:26;;;;;;;3.13;1.97;;;13.10;73.40;;;;;;5023371;28;20189;-90
2021/05/21 02:54:52;;;;;;;3.17;2.10;;;13.10;73.50;;;;;;5033979;28;20205;-90
2021/05/21 02:57:21;;;;;;;3.70;2.30;;;13.20;72.80;;;;;;5003594;28;20760;-90
2021/05/21 02:59:47;;;;;;;2.03;1.93;;;13.20;72.40;;;;;;5020833;28;20247;-91
2021/05/21 03:02:12;;;;;;;2.23;2.03;;;13.30;72.40;;;;;;5021234;28;20643;-90
2021/05/21 03:04:38;;;;;;;2.40;2.10;;;13.30;72.20;;;;;;5021859;28;20194;-90
2021/05/21 03:07:03;;;;;;;2.23;2.03;;;13.30;72.70;;;;;;5021869;28;20182;-91
2021/05/21 03:09:29;;;;;;;2.03;1.90;;;13.30;72.50;;;;;;5002904;28;20215;-90
2021/05/21 03:11:55;;;;;;;2.27;1.90;;;13.20;72.60;;;;;;4972001;28;20269;-90
2021/05/21 03:14:20;;;;;;;5.33;2.00;;;13.20;72.60;;;;;;5020347;28;20204;-90
2021/05/21 03:16:46;;;;;;;2.53;2.07;;;13.20;72.70;;;;;;4987620;28;20185;-90
2021/05/21 03:19:11;;;;;;;1.97;1.87;;;13.20;72.50;;;;;;4986550;28;20216;-90
2021/05/21 03:21:37;;;;;;;2.30;2.00;;;13.20;72.60;;;;;;5004341;28;20204;-90
2021/05/21 03:24:03;;;;;;;2.47;1.90;;;13.10;72.60;;;;;;5003044;28;20183;-89
2021/05/21 03:26:29;;;;;;;2.23;2.00;;;12.80;73.80;;;;;;5003735;28;20268;-90
2021/05/21 03:28:58;;;;;;;2.10;2.00;;;12.70;74.40;;;;;;5009247;28;20206;-90
2021/05/21 03:31:24;;;;;;;2.10;1.90;;;12.70;74.30;;;;;;5038950;28;20261;-90
2021/05/21 03:33:49;;;;;;;2.23;2.00;;;12.70;74.50;;;;;;5024042;28;20225;-90
2021/05/21 03:36:15;;;;;;;2.10;1.90;;;12.80;74.20;;;;;;5040771;28;20178;-90
2021/05/21 03:38:41;;;;;;;2.00;1.90;;;12.80;74.40;;;;;;5039676;28;20241;-91
2021/05/21 03:41:08;;;;;;;2.80;2.00;;;12.70;74.40;;;;;;5025758;28;20214;-90
2021/05/21 03:43:34;;;;;;;2.40;2.20;;;12.70;74.40;;;;;;5003415;28;20529;-89
2021/05/21 03:45:59;;;;;;;2.50;2.30;;;12.80;73.90;;;;;;5004246;28;20656;-90
2021/05/21 03:48:25;;;;;;;2.23;2.10;;;12.90;73.80;;;;;;5019825;28;20573;-90
2021/05/21 03:50:51;;;;;;;2.90;1.83;;;13.10;73.00;;;;;;5020092;28;20565;-90
2021/05/21 03:53:16;;;;;;;2.20;2.10;;;13.10;72.30;;;;;;5003548;28;20210;-89
2021/05/21 03:55:42;;;;;;;1.90;1.80;;;13.10;71.90;;;;;;5021662;28;20594;-89
2021/05/21 03:58:09;;;;;;;2.00;1.90;;;13.20;71.90;;;;;;5024353;28;20171;-89
2021/05/21 04:00:34;;;;;;;4.47;2.70;;;13.20;71.70;;;;;;5035438;28;20255;-90
2021/05/21 04:03:00;;;;;;;3.03;2.40;;;13.10;71.90;;;;;;5052804;28;20173;-89
2021/05/21 04:05:27;;;;;;;2.30;1.90;;;13.10;72.50;;;;;;5055253;28;20288;-89
2021/05/21 04:07:53;;;;;;;2.50;1.90;;;13.10;72.00;;;;;;5040371;28;20248;-91
2021/05/21 04:10:19;;;;;;;2.67;2.20;;;13.10;72.10;;;;;;5039260;28;20272;-88
2021/05/21 04:12:52;;;;;;;2.97;2.00;;;13.00;72.70;;;;;;5012745;28;20170;-94
2021/05/21 04:15:17;;;;;;;1.90;1.77;;;13.00;73.20;;;;;;5039464;28;20189;-93
2021/05/21 04:17:44;;;;;;;2.90;1.83;;;13.10;73.20;;;;;;5055983;28;20173;-89
2021/05/21 04:20:11;;;;;;;2.10;2.00;;;13.20;72.90;;;;;;5029854;28;20227;-88
2021/05/21 04:22:37;;;;;;;1.80;1.67;;;13.10;74.00;;;;;;5028275;28;20183;-92
2021/05/21 04:25:04;;;;;;;3.90;1.90;;;13.20;73.80;;;;;;5043523;28;20182;-93
2021/05/21 04:27:29;;;;;;;2.00;1.90;;;13.20;73.70;;;;;;5043752;28;20169;-94
2021/05/21 04:29:55;;;;;;;2.00;1.80;;;13.20;73.60;;;;;;5044920;28;20272;-89
2021/05/21 04:32:21;;;;;;;3.10;1.90;;;13.20;74.80;;;;;;5043155;28;20213;-90
2021/05/21 04:34:47;;;;;;;2.00;1.87;;;13.20;73.60;;;;;;5025520;28;20304;-88
2021/05/21 04:37:12;;;;;;;3.60;1.90;;;13.30;72.90;;;;;;5026323;28;20214;-88
2021/05/21 04:39:38;;;;;;;2.10;1.90;;;13.40;73.40;;;;;;5025779;28;20185;-89
2021/05/21 04:42:04;;;;;;;4.03;3.10;;;13.30;73.40;;;;;;5009517;28;20188;-88
2021/05/21 04:44:30;;;;;;;4.10;3.70;;;13.20;73.70;;;;;;5026948;28;20659;-88
2021/05/21 04:46:56;;;;;;;3.00;2.63;;;13.10;73.80;;;;;;5043854;28;20190;-89
2021/05/21 04:49:35;;;;;;;2.87;2.60;;;13.10;73.60;;;;;;5026714;28;20253;-89
2021/05/21 04:52:10;;;;;;;3.33;2.00;;;13.10;73.90;;;;;;5042630;28;20519;-89
2021/05/21 04:54:38;;;;;;;2.20;2.00;;;13.00;73.80;;;;;;5026032;28;20222;-89
2021/05/21 04:57:04;;;;;;;2.13;2.00;;;12.80;74.60;;;;;;5026795;28;20748;-89
2021/05/21 04:59:30;;;;;;;3.27;1.90;;;12.80;75.20;;;;;;5044142;28;20203;-89
2021/05/21 05:01:59;;;;;;;2.13;1.90;;;12.80;75.30;;;;;;5037529;28;20224;-90
2021/05/21 05:04:24;;;;;;;1.90;1.80;;;12.90;74.00;;;;;;5005724;28;20196;-91
2021/05/21 05:06:50;;;;;;;1.97;1.87;;;13.00;74.00;;;;;;5030643;28;20194;-89
2021/05/21 05:11:45;;;;;;;1.70;1.60;;;13.30;73.60;;;;;;5022091;28;20249;-88
2021/05/21 05:14:12;;;;;;;2.20;1.97;;;13.40;73.80;;;;;;5023439;28;20203;-88
2021/05/21 05:16:39;;;;;;;1.80;1.70;;;13.50;73.60;;;;;;5023265;28;20174;-86
2021/05/21 05:19:05;;;;;;;3.37;1.80;;;13.60;71.90;;;;;;5018303;28;20897;-86
2021/05/21 05:21:39;;;;;;;1.93;1.70;;;13.60;69.00;;;;;;5022960;28;20205;-87
2021/05/21 05:24:06;;;;;;;2.27;1.80;;;13.70;69.70;;;;;;5023326;28;20221;-86
2021/05/21 05:26:32;;;;;;;1.80;1.70;;;13.60;70.10;;;;;;5020843;28;20185;-86
2021/05/21 05:28:59;;;;;;;2.57;2.10;;;13.60;69.90;;;;;;5005343;28;20197;-87
2021/05/21 05:31:24;;;;;;;2.43;2.20;;;13.60;68.70;;;;;;5022133;28;20351;-88
2021/05/21 05:33:50;;;;;;;2.40;1.90;;;13.60;67.40;;;;;;5023380;28;20264;-88
2021/05/21 05:36:16;;;;;;;2.90;2.00;;;13.60;66.90;;;;;;4988461;28;20193;-89
2021/05/21 05:38:42;;;;;;;2.07;1.80;;;13.60;66.10;;;;;;5004747;28;20213;-88
2021/05/21 05:41:08;;;;;;;2.60;1.70;;;13.60;66.50;;;;;;4988132;28;20601;-89
2021/05/21 05:43:34;;;;;;;2.73;1.70;;;13.80;65.10;;;;;;5005037;28;20193;-85
2021/05/21 05:45:59;;;;;;;2.00;1.80;;;14.00;63.40;;;;;;5003885;28;20660;-85
2021/05/21 05:48:25;;;;;;;2.20;1.70;;;14.00;63.50;;;;;;5022398;28;20197;-86
2021/05/21 05:50:51;;;;;;;1.63;1.43;;;14.10;63.00;;;;;;5007929;28;20310;-86
2021/05/21 05:53:18;;;;;;;1.97;1.80;;;14.20;60.70;;;;;;5022664;28;20209;-86
2021/05/21 05:55:44;;;;;;;4.33;2.00;;;14.40;60.00;;;;;;5004994;28;20213;-86
2021/05/21 05:58:11;;;;;;;1.77;1.67;;;14.40;61.70;;;;;;5010756;28;20185;-87
2021/05/21 06:00:37;;;;;;;6.17;2.00;;;14.40;60.30;;;;;;5022741;28;20199;-86
2021/05/21 06:03:11;;;;;;;2.23;1.60;;;14.60;59.50;;;;;;5021998;28;20182;-86
2021/05/21 06:05:38;;;;;;;2.30;1.50;;;14.70;59.50;;;;;;5020050;28;20779;-86
2021/05/21 06:08:05;;;;;;;3.50;1.63;;;14.70;59.30;;;;;;5004294;28;20242;-86
2021/05/21 06:10:32;;;;;;;1.73;1.60;;;14.80;58.50;;;;;;5022506;28;20228;-86
2021/05/21 06:13:07;;;;;;;1.93;1.73;;;15.00;57.30;;;;;;5021902;28;20198;-85
2021/05/21 06:15:33;;;;;;;2.13;1.60;;;14.90;58.20;;;;;;5024176;28;20207;-86
2021/05/21 06:17:59;;;;;;;2.30;1.57;;;14.90;58.70;;;;;;5003795;28;20190;-86
2021/05/21 06:20:27;;;;;;;2.13;1.80;;;14.90;58.10;;;;;;5023334;28;20190;-85
2021/05/21 06:22:53;;;;;;;2.73;1.80;;;14.90;58.00;;;;;;5028127;28;20700;-85
2021/05/21 06:26:11;;;;;;;4.07;1.90;;;15.10;58.10;;;;;;5030448;28;20181;-85
2021/05/21 06:28:11;;;;;;;3.93;1.70;;;15.10;58.30;;;;;;5016530;28;20257;-87
2021/05/21 06:30:38;;;;;;;2.07;1.63;;;15.00;57.90;;;;;;5024664;28;20198;-87
2021/05/21 06:33:04;;;;;;;2.83;1.60;;;15.10;58.10;;;;;;5010613;28;20244;-87
2021/05/21 06:35:30;;;;;;;3.87;1.77;;;15.20;56.80;;;;;;5024880;28;20238;-87
2021/05/21 06:37:56;;;;;;;1.83;1.50;;;15.20;56.80;;;;;;5022550;28;20215;-88
2021/05/21 06:40:23;;;;;;;2.17;1.80;;;15.30;57.80;;;;;;5004926;28;20188;-88
2021/05/21 06:42:48;;;;;;;2.73;1.67;;;15.40;56.60;;;;;;5021561;28;20194;-88
2021/05/21 06:45:15;;;;;;;1.60;1.50;;;15.30;57.90;;;;;;5024281;28;20231;-88
2021/05/21 06:47:41;;;;;;;1.80;1.67;;;15.20;56.60;;;;;;5010186;28;20212;-88
2021/05/21 06:50:07;;;;;;;6.07;2.57;;;15.30;57.10;;;;;;4987849;28;20197;-89
2021/05/21 06:52:34;;;;;;;2.30;1.87;;;15.30;57.40;;;;;;5021980;28;20229;-90
2021/05/21 06:54:59;;;;;;;3.17;2.00;;;15.50;55.70;;;;;;5021298;28;20236;-87
2021/05/21 06:57:25;;;;;;;1.57;1.47;;;15.50;56.20;;;;;;5021418;28;20413;-89
2021/05/21 06:59:51;;;;;;;3.93;1.70;;;15.60;56.20;;;;;;5003443;28;20204;-88
2021/05/21 07:02:17;;;;;;;2.90;1.60;;;15.70;55.70;;;;;;5003711;28;20210;-88
2021/05/21 07:04:43;;;;;;;3.33;1.70;;;15.70;55.60;;;;;;4988287;28;20201;-88
2021/05/21 07:07:09;;;;;;;2.50;1.50;;;15.60;55.10;;;;;;5021737;28;20198;-85
2021/05/21 07:09:35;;;;;;;2.40;1.70;;;15.70;55.60;;;;;;5023384;28;20230;-86
2021/05/21 07:12:01;;;;;;;3.23;1.50;;;15.70;54.70;;;;;;5002865;28;20254;-87
2021/05/21 07:14:26;;;;;;;1.60;1.50;;;15.70;55.00;;;;;;5003708;28;20293;-87
2021/05/21 07:16:52;;;;;;;4.30;1.50;;;15.70;55.90;;;;;;5002984;28;20193;-87
2021/05/21 07:19:18;;;;;;;1.30;1.30;;;15.60;56.70;;;;;;5001291;28;20186;-86
2021/05/21 07:21:47;;;;;;;1.57;1.40;;;15.60;56.10;;;;;;5003988;28;20206;-86
2021/05/21 07:24:13;;;;;;;2.50;1.60;;;15.70;56.50;;;;;;4988287;28;20277;-86
2021/05/21 07:26:39;;;;;;;3.57;1.70;;;15.70;56.30;;;;;;5019785;28;20193;-88
2021/05/21 07:29:05;;;;;;;1.53;1.40;;;15.70;56.00;;;;;;5021658;28;20189;-88
2021/05/21 07:31:31;;;;;;;2.37;1.90;;;15.80;55.90;;;;;;5020544;28;20267;-88
2021/05/21 07:33:58;;;;;;;6.60;1.70;;;15.90;55.80;;;;;;5002266;28;20209;-89
2021/05/21 07:36:25;;;;;;;1.70;1.60;;;15.80;55.40;;;;;;5004799;28;20247;-89
2021/05/21 07:38:55;;;;;;;2.43;1.67;;;15.80;55.90;;;;;;5003511;28;20249;-89
2021/05/21 07:41:22;;;;;;;3.87;1.60;;;15.90;55.80;;;;;;5003252;28;20287;-88
2021/05/21 07:43:49;;;;;;;4.17;1.73;;;15.90;56.90;;;;;;5021350;28;20266;-90
2021/05/21 07:46:15;;;;;;;2.73;1.63;;;15.90;57.20;;;;;;5009982;28;20559;-89
2021/05/21 07:48:42;;;;;;;1.40;1.30;;;15.90;57.40;;;;;;5021021;28;20742;-87
2021/05/21 07:51:08;;;;;;;1.87;1.57;;;16.10;56.10;;;;;;5020435;28;20206;-89
2021/05/21 07:53:35;;;;;;;1.67;1.57;;;16.00;56.90;;;;;;5021552;28;20215;-88
2021/05/21 07:56:04;;;;;;;3.47;1.60;;;16.10;56.70;;;;;;5025654;28;20177;-87
2021/05/21 07:58:30;;;;;;;2.77;1.70;;;16.10;56.50;;;;;;5007224;28;20218;-88
2021/05/21 08:00:57;;;;;;;4.70;1.73;;;16.10;56.00;;;;;;5024958;28;20238;-88
2021/05/21 08:03:23;;;;;;;3.97;2.47;;;16.00;55.90;;;;;;5025449;28;20190;-87
2021/05/21 08:05:49;;;;;;;3.20;2.00;;;16.10;56.00;;;;;;5025398;28;20669;-88
2021/05/21 08:08:20;;;;;;;2.33;1.90;;;16.10;56.50;;;;;;5024735;28;20204;-86
2021/05/21 08:10:50;;;;;;;3.00;1.60;;;16.10;57.40;;;;;;5024940;28;20232;-89
2021/05/21 08:13:16;;;;;;;3.77;1.83;;;16.20;58.00;;;;;;5025082;28;20209;-89
2021/05/21 08:15:42;;;;;;;2.40;1.60;;;16.30;57.70;;;;;;5027064;28;20188;-88
2021/05/21 08:18:08;;;;;;;2.90;1.90;;;16.20;58.20;;;;;;5025662;28;20281;-87
2021/05/21 08:20:34;;;;;;;3.77;1.63;;;16.00;58.60;;;;;;5007021;28;20217;-88
2021/05/21 08:23:00;;;;;;;4.90;1.70;;;15.90;59.40;;;;;;5006617;28;20854;-87
2021/05/21 08:25:26;;;;;;;2.27;1.80;;;15.80;59.80;;;;;;5025654;28;20193;-88
2021/05/21 08:27:53;;;;;;;7.57;2.03;;;15.70;60.40;;;;;;5008119;28;20271;-87
2021/05/21 08:30:20;;;;;;;1.70;1.60;;;15.70;60.70;;;;;;5027497;28;20185;-88
2021/05/21 08:32:48;;;;;;;3.20;2.00;;;15.60;59.80;;;;;;5031277;28;20199;-88
2021/05/21 08:35:15;;;;;;;3.53;2.03;;;15.60;59.10;;;;;;5024200;28;20196;-88
2021/05/21 08:37:40;;;;;;;5.17;1.87;;;15.60;59.40;;;;;;5023912;28;20205;-87
2021/05/21 08:40:08;;;;;;;2.43;1.67;;;15.60;60.00;;;;;;5006856;28;20189;-87
2021/05/21 08:42:38;;;;;;;4.73;2.00;;;15.60;60.40;;;;;;5023890;28;20244;-88
2021/05/21 08:45:13;;;;;;;3.27;1.87;;;15.70;59.90;;;;;;5024307;28;20281;-88
2021/05/21 08:47:39;;;;;;;3.30;2.00;;;15.70;59.90;;;;;;5023855;28;20539;-88
2021/05/21 08:50:10;;;;;;;7.37;2.40;;;15.70;59.20;;;;;;5025090;28;20182;-87
2021/05/21 08:52:36;;;;;;;3.00;2.17;;;15.70;60.10;;;;;;5023860;28;20213;-88
2021/05/21 08:55:04;;;;;;;5.47;2.57;;;15.60;60.50;;;;;;5023082;28;20220;-88
2021/05/21 08:57:30;;;;;;;2.67;1.73;;;15.70;59.90;;;;;;5023156;28;20261;-88
2021/05/21 08:59:56;;;;;;;2.17;1.80;;;15.70;60.00;;;;;;5023358;28;20181;-90
2021/05/21 09:02:27;;;;;;;3.70;2.83;;;15.70;59.70;;;;;;5022897;28;20231;-88
2021/05/21 09:04:59;;;;;;;2.70;1.90;;;15.80;59.80;;;;;;5024484;28;20820;-87
2021/05/21 09:07:31;;;;;;;5.40;2.10;;;15.90;60.00;;;;;;5017860;28;20201;-88
2021/05/21 09:09:58;;;;;;;2.97;1.90;;;15.90;59.90;;;;;;5024303;28;20201;-88
2021/05/21 09:12:24;;;;;;;3.80;1.97;;;15.90;59.30;;;;;;5004020;28;20215;-88
2021/05/21 09:15:14;;;;;;;14.23;13.20;;;15.90;60.60;;;;;;5004042;28;20210;-88
2021/05/21 09:18:04;;;;;;;6.70;6.13;;;16.10;59.60;;;;;;5018893;28;20912;-87
2021/05/21 09:20:34;;;;;;;4.43;4.13;;;16.20;59.90;;;;;;4987845;28;20730;-88
2021/05/21 09:23:11;;;;;;;2.13;1.90;;;16.20;60.00;;;;;;5019559;28;20186;-87
2021/05/21 09:25:46;;;;;;;4.53;2.47;;;16.20;59.20;;;;;;5016418;28;20192;-88
2021/05/21 09:28:33;;;;;;;2.30;2.10;;;16.10;59.80;;;;;;5019974;28;20249;-88
2021/05/21 09:31:06;;;;;;;5.17;2.50;;;16.20;59.00;;;;;;5023180;28;20955;-88
2021/05/21 09:33:36;;;;;;;3.10;2.10;;;16.20;59.00;;;;;;5020554;28;20318;-88
2021/05/21 09:36:03;;;;;;;5.77;2.33;;;16.30;58.40;;;;;;5002764;28;20193;-87
2021/05/21 09:38:50;;;;;;;2.67;2.10;;;16.10;58.70;;;;;;5019768;28;20199;-88
2021/05/21 09:41:16;;;;;;;3.00;2.10;;;16.10;58.90;;;;;;5016924;28;20386;-88
2021/05/21 09:43:49;;;;;;;4.17;1.93;;;16.00;58.50;;;;;;5018670;28;20206;-88
2021/05/21 09:46:15;;;;;;;3.73;2.03;;;16.10;58.70;;;;;;5019065;28;20192;-88
2021/05/21 09:48:41;;;;;;;3.00;2.00;;;16.00;58.70;;;;;;5018975;28;20738;-87
2021/05/21 09:51:06;;;;;;;2.93;2.20;;;16.00;59.00;;;;;;5005005;28;20289;-87
2021/05/21 09:53:35;;;;;;;6.30;2.43;;;16.10;58.80;;;;;;5018863;28;20201;-87
2021/05/21 09:56:05;;;;;;;4.47;1.90;;;16.10;58.50;;;;;;5019703;28;20209;-88
2021/05/21 09:58:33;;;;;;;2.50;1.90;;;16.20;59.00;;;;;;5002593;28;20195;-87
2021/05/21 10:01:19;;;;;;;2.93;1.93;;;16.20;58.60;;;;;;5028096;28;20297;-87
2021/05/21 10:03:47;;;;;;;4.27;2.30;;;16.30;58.70;;;;;;5020708;28;20588;-88
2021/05/21 10:06:15;;;;;;;3.63;1.90;;;16.40;58.60;;;;;;5001969;28;20210;-87
2021/05/21 10:08:43;;;;;;;4.07;2.30;;;16.50;58.80;;;;;;5019365;28;20230;-87
2021/05/21 10:11:09;;;;;;;4.93;2.27;;;16.40;58.30;;;;;;5002530;28;20238;-88
2021/05/21 10:13:44;;;;;;;4.00;2.67;;;16.30;59.20;;;;;;5020104;28;20245;-88
2021/05/21 10:16:11;;;;;;;3.87;2.17;;;16.30;58.90;;;;;;5019831;28;20191;-87
2021/05/21 10:18:38;;;;;;;8.37;2.57;;;16.30;59.40;;;;;;5019396;28;20182;-89
2021/05/21 10:21:05;;;;;;;3.97;2.10;;;16.30;58.90;;;;;;5002236;28;20677;-87
2021/05/21 10:23:37;;;;;;;2.20;2.00;;;16.30;59.20;;;;;;5018677;28;20267;-88
2021/05/21 10:26:12;;;;;;;2.50;2.30;;;16.40;60.00;;;;;;5018888;28;20650;-89
2021/05/21 10:28:40;;;;;;;3.03;1.90;;;16.50;60.20;;;;;;5000731;28;20197;-88
2021/05/21 10:31:09;;;;;;;4.20;2.00;;;16.50;59.30;;;;;;5011256;28;20210;-88
2021/05/21 10:33:39;;;;;;;3.40;2.13;;;16.50;58.60;;;;;;5019121;28;20599;-88
2021/05/21 10:36:23;;;;;;;3.13;2.20;;;16.50;59.80;;;;;;5030161;28;20216;-87
2021/05/21 10:39:15;;;;;;;3.17;1.70;;;16.50;59.80;;;;;;5036569;28;20267;-87
2021/05/21 10:41:58;;;;;;;5.73;2.03;;;16.50;59.40;;;;;;5022903;28;20202;-87
2021/05/21 10:44:28;;;;;;;6.43;2.20;;;16.40;59.50;;;;;;5015615;28;20181;-86
2021/05/21 10:47:13;;;;;;;4.83;3.00;;;16.60;60.00;;;;;;5006101;28;20192;-85
2021/05/21 10:49:38;;;;;;;4.27;1.93;;;16.60;59.90;;;;;;5020248;28;20219;-88
2021/05/21 10:52:05;;;;;;;2.97;2.37;;;16.60;62.00;;;;;;5011513;28;20208;-87
2021/05/21 10:54:34;;;;;;;5.23;2.20;;;16.70;61.80;;;;;;5018760;28;20898;-90
2021/05/21 10:57:14;;;;;;;2.33;2.10;;;16.50;63.10;;;;;;5019416;28;20213;-90
2021/05/21 10:59:59;;;;;;;2.20;1.83;;;16.30;64.90;;;;;;5020452;28;20216;-90
2021/05/21 11:02:44;;;;;;;4.83;2.13;;;16.20;64.30;;;;;;5002788;28;20297;-89
2021/05/21 11:05:28;;;;;;;4.80;1.60;;;16.00;65.90;;;;;;5021691;28;20186;-88
2021/05/21 11:07:56;;;;;;;2.23;1.97;;;15.80;65.30;;;;;;5006955;28;20232;-89
2021/05/21 11:10:38;;;;;;;3.63;1.80;;;15.70;67.00;;;;;;5024523;28;20201;-90
2021/05/21 11:13:10;;;;;;;7.80;1.90;;;15.60;67.10;;;;;;5019546;28;20188;-90
2021/05/21 11:15:47;;;;;;;3.13;1.50;;;15.80;66.60;;;;;;5000519;28;20221;-91
2021/05/21 11:18:25;;;;;;;4.43;1.80;;;16.00;67.00;;;;;;5018960;28;20235;-92
2021/05/21 11:21:08;;;;;;;5.23;1.67;;;16.20;65.80;;;;;;5016424;28;20209;-91
2021/05/21 11:23:41;;;;;;;3.00;1.87;;;16.40;64.60;;;;;;5017769;28;20185;-90
2021/05/21 11:26:19;;;;;;;2.50;1.93;;;16.30;65.30;;;;;;5003668;28;20295;-91
2021/05/21 11:29:01;;;;;;;2.43;1.80;;;16.50;66.30;;;;;;5015499;28;20212;-92
2021/05/21 11:31:30;;;;;;;1.93;1.73;;;16.60;65.40;;;;;;5022059;28;20200;-91
2021/05/21 11:33:59;;;;;;;2.00;1.87;;;16.60;65.00;;;;;;5026481;28;20213;-90
2021/05/21 11:36:27;;;;;;;3.20;1.67;;;16.50;65.70;;;;;;5004511;28;20204;-90
2021/05/21 11:38:53;;;;;;;2.37;2.17;;;16.30;65.90;;;;;;5018005;28;20264;-91
2021/05/21 11:41:31;;;;;;;4.30;1.90;;;16.30;65.90;;;;;;5019599;28;20242;-90
2021/05/21 11:44:09;;;;;;;3.53;1.93;;;16.50;65.70;;;;;;5021190;28;20191;-90
2021/05/21 11:46:43;;;;;;;3.53;2.03;;;16.50;64.90;;;;;;5015809;28;20193;-89
2021/05/21 11:49:12;;;;;;;3.07;2.10;;;16.50;64.60;;;;;;5019491;28;20187;-89
2021/05/21 11:51:38;;;;;;;3.40;1.83;;;16.40;65.10;;;;;;5018669;28;20206;-89
2021/05/21 11:54:05;;;;;;;3.07;2.03;;;16.30;66.00;;;;;;5022592;28;20227;-89
2021/05/21 11:56:40;;;;;;;4.17;1.80;;;16.30;64.80;;;;;;5015576;28;20182;-89
2021/05/21 11:59:08;;;;;;;4.13;2.00;;;16.10;66.10;;;;;;5019786;28;20197;-89
2021/05/21 12:01:36;;;;;;;2.93;1.83;;;16.20;66.00;;;;;;5015744;28;20686;-89
2021/05/21 12:04:04;;;;;;;2.20;1.90;;;16.20;66.00;;;;;;5017973;28;20222;-89
2021/05/21 12:06:30;;;;;;;3.60;2.03;;;16.20;65.60;;;;;;5018636;28;20227;-88
2021/05/21 12:08:56;;;;;;;2.57;1.73;;;16.20;65.50;;;;;;5019945;28;20184;-87
2021/05/21 12:11:25;;;;;;;2.40;1.80;;;16.00;66.60;;;;;;5018198;28;20221;-88
2021/05/21 12:13:52;;;;;;;4.60;2.20;;;16.00;66.60;;;;;;4999116;28;20232;-88
2021/05/21 12:16:19;;;;;;;2.10;1.60;;;16.00;68.30;;;;;;5019962;28;20269;-87
2021/05/21 12:18:48;;;;;;;1.90;1.80;;;16.00;67.60;;;;;;5020912;28;20188;-88
2021/05/21 12:21:28;;;;;;;2.93;1.90;;;16.00;67.60;;;;;;5016956;28;20227;-89
2021/05/21 12:23:56;;;;;;;2.60;1.97;;;16.20;68.40;;;;;;5019418;28;20189;-89
2021/05/21 12:26:27;;;;;;;1.93;1.80;;;16.30;66.00;;;;;;4998285;28;20219;-89
2021/05/21 12:28:54;;;;;;;2.37;1.80;;;16.40;66.20;;;;;;4986580;28;20191;-89
2021/05/21 12:31:28;;;;;;;4.90;2.20;;;16.40;65.70;;;;;;5001504;28;20215;-89
2021/05/21 12:33:56;;;;;;;2.87;1.70;;;16.40;65.80;;;;;;5019526;28;20212;-89
2021/05/21 12:36:28;;;;;;;5.33;1.87;;;16.40;65.70;;;;;;5017435;28;20182;-89
2021/05/21 12:39:05;;;;;;;3.67;1.80;;;16.50;64.20;;;;;;5001016;28;20254;-89
2021/05/21 12:41:34;;;;;;;1.90;1.80;;;16.60;64.40;;;;;;5023743;28;20203;-90
2021/05/21 12:44:12;;;;;;;1.80;1.70;;;16.70;62.70;;;;;;5003987;28;20207;-89
2021/05/21 12:47:00;;;;;;;2.20;1.63;;;16.70;62.50;;;;;;5017391;28;20253;-89
2021/05/21 12:49:29;;;;;;;3.40;2.00;;;16.70;60.80;;;;;;5014918;28;20190;-89
2021/05/21 12:52:01;;;;;;;2.93;1.90;;;16.70;61.60;;;;;;5018377;28;20737;-89
2021/05/21 12:54:33;;;;;;;9.73;2.00;;;16.70;61.30;;;;;;5017299;28;20207;-89
2021/05/21 12:57:03;;;;;;;3.27;1.70;;;16.80;59.80;;;;;;5000216;28;20182;-90